sensor_id;sensor_type;location;lat;lon;timestamp;pressure;altitude;pressure_sealevel;temperature;humidity
37860;BME280;23698;52.014;5.190;2023-04-16T00:00:15;102089.63;;;9.04;100.00
37860;BME280;23698;52.014;5.190;2023-04-16T00:03:01;102089.09;;;8.73;100.00
37860;BME280;23698;52.014;5.190;2023-04-16T00:05:48;102091.84;;;8.91;100.00
37860;BME280;23698;52.014;5.190;2023-04-16T00:08:34;102086.78;;;9.05;100.00
37860;BME280;23698;52.014;5.190;2023-04-16T00:11:22;102087.84;;;8.95;100.00
37860;BME280;23698;52.014;5.190;2023-04-16T00:14:08;102083.28;;;8.95;100.00
37860;BME280;23698;52.014;5.190;2023-04-16T00:16:55;102090.38;;;8.96;100.00
37860;BME280;23698;52.014;5.190;2023-04-16T00:19:41;102086.56;;;8.89;100.00
37860;BME280;23698;52.014;5.190;2023-04-16T00:22:28;102085.22;;;9.03;100.00
37860;BME280;23698;52.014;5.190;2023-04-16T00:25:14;102074.00;;;8.98;100.00
37860;BME280;23698;52.014;5.190;2023-04-16T00:28:01;102083.16;;;8.87;100.00
37860;BME280;23698;52.014;5.190;2023-04-16T00:30:47;102088.25;;;8.72;100.00
37860;BME280;23698;52.014;5.190;2023-04-16T00:33:34;102086.91;;;8.86;100.00
37860;BME280;23698;52.014;5.190;2023-04-16T00:36:22;102085.53;;;8.72;100.00
37860;BME280;23698;52.014;5.190;2023-04-16T00:39:08;102085.38;;;8.74;100.00
37860;BME280;23698;52.014;5.190;2023-04-16T00:41:55;102075.50;;;8.55;100.00
37860;BME280;23698;52.014;5.190;2023-04-16T00:44:42;102086.53;;;8.71;100.00
37860;BME280;23698;52.014;5.190;2023-04-16T00:47:29;102088.56;;;8.87;100.00
37860;BME280;23698;52.014;5.190;2023-04-16T00:50:16;102079.00;;;8.93;100.00
37860;BME280;23698;52.014;5.190;2023-04-16T00:53:02;102075.56;;;9.00;100.00
37860;BME280;23698;52.014;5.190;2023-04-16T00:55:49;102083.94;;;8.79;100.00
37860;BME280;23698;52.014;5.190;2023-04-16T00:58:35;102072.56;;;8.76;100.00
37860;BME280;23698;52.014;5.190;2023-04-16T01:01:23;102084.78;;;8.80;100.00
37860;BME280;23698;52.014;5.190;2023-04-16T01:04:09;102085.47;;;8.82;100.00
37860;BME280;23698;52.014;5.190;2023-04-16T01:06:56;102082.84;;;8.72;100.00
37860;BME280;23698;52.014;5.190;2023-04-16T01:09:42;102084.78;;;8.80;100.00
37860;BME280;23698;52.014;5.190;2023-04-16T01:12:29;102075.50;;;8.82;100.00
37860;BME280;23698;52.014;5.190;2023-04-16T01:15:16;102081.47;;;8.86;100.00
37860;BME280;23698;52.014;5.190;2023-04-16T01:18:12;102081.91;;;9.09;100.00
37860;BME280;23698;52.014;5.190;2023-04-16T01:21:00;102072.25;;;9.06;100.00
37860;BME280;23698;52.014;5.190;2023-04-16T01:23:46;102083.03;;;8.88;100.00
37860;BME280;23698;52.014;5.190;2023-04-16T01:26:32;102081.97;;;8.99;100.00
37860;BME280;23698;52.014;5.190;2023-04-16T01:29:19;102081.03;;;9.08;100.00
37860;BME280;23698;52.014;5.190;2023-04-16T01:32:06;102083.38;;;9.03;100.00
37860;BME280;23698;52.014;5.190;2023-04-16T01:34:56;102083.09;;;9.24;100.00
37860;BME280;23698;52.014;5.190;2023-04-16T01:37:43;102083.75;;;9.08;100.00
37860;BME280;23698;52.014;5.190;2023-04-16T01:40:30;102087.66;;;8.96;100.00
37860;BME280;23698;52.014;5.190;2023-04-16T01:43:16;102089.97;;;9.19;100.00
37860;BME280;23698;52.014;5.190;2023-04-16T01:46:14;102088.28;;;9.18;100.00
37860;BME280;23698;52.014;5.190;2023-04-16T01:49:04;102089.41;;;9.15;100.00
37860;BME280;23698;52.014;5.190;2023-04-16T01:51:51;102078.38;;;9.26;100.00
37860;BME280;23698;52.014;5.190;2023-04-16T01:54:39;102085.81;;;9.42;100.00
37860;BME280;23698;52.014;5.190;2023-04-16T01:57:25;102088.97;;;9.38;100.00
37860;BME280;23698;52.014;5.190;2023-04-16T02:00:11;102092.56;;;9.38;100.00
37860;BME280;23698;52.014;5.190;2023-04-16T02:03:07;102092.06;;;9.43;100.00
37860;BME280;23698;52.014;5.190;2023-04-16T02:05:53;102085.66;;;9.44;100.00
37860;BME280;23698;52.014;5.190;2023-04-16T02:08:39;102089.38;;;9.43;100.00
37860;BME280;23698;52.014;5.190;2023-04-16T02:11:27;102094.63;;;9.62;100.00
37860;BME280;23698;52.014;5.190;2023-04-16T02:14:14;102093.41;;;9.57;100.00
37860;BME280;23698;52.014;5.190;2023-04-16T02:17:01;102097.13;;;9.74;100.00
37860;BME280;23698;52.014;5.190;2023-04-16T02:19:54;102090.84;;;9.91;100.00
37860;BME280;23698;52.014;5.190;2023-04-16T02:22:41;102089.22;;;9.62;100.00
37860;BME280;23698;52.014;5.190;2023-04-16T02:25:31;102095.66;;;9.61;100.00
37860;BME280;23698;52.014;5.190;2023-04-16T02:28:19;102093.91;;;9.96;100.00
37860;BME280;23698;52.014;5.190;2023-04-16T02:31:05;102086.56;;;9.89;100.00
37860;BME280;23698;52.014;5.190;2023-04-16T02:33:58;102095.78;;;9.78;100.00
37860;BME280;23698;52.014;5.190;2023-04-16T02:36:44;102094.88;;;9.69;100.00
37860;BME280;23698;52.014;5.190;2023-04-16T02:39:30;102101.44;;;9.85;100.00
37860;BME280;23698;52.014;5.190;2023-04-16T02:42:16;102094.09;;;9.77;100.00
37860;BME280;23698;52.014;5.190;2023-04-16T02:45:05;102100.97;;;9.71;100.00
37860;BME280;23698;52.014;5.190;2023-04-16T02:47:52;102096.94;;;9.93;100.00
37860;BME280;23698;52.014;5.190;2023-04-16T02:50:38;102098.91;;;9.65;100.00
37860;BME280;23698;52.014;5.190;2023-04-16T02:53:25;102092.97;;;10.06;100.00
37860;BME280;23698;52.014;5.190;2023-04-16T02:56:11;102102.84;;;10.15;100.00
37860;BME280;23698;52.014;5.190;2023-04-16T02:58:57;102102.72;;;9.98;100.00
37860;BME280;23698;52.014;5.190;2023-04-16T03:01:48;102104.91;;;9.95;100.00
37860;BME280;23698;52.014;5.190;2023-04-16T03:04:34;102099.03;;;9.99;100.00
37860;BME280;23698;52.014;5.190;2023-04-16T03:07:21;102107.19;;;9.45;100.00
37860;BME280;23698;52.014;5.190;2023-04-16T03:10:07;102106.53;;;9.70;100.00
37860;BME280;23698;52.014;5.190;2023-04-16T03:12:53;102105.84;;;9.86;100.00
37860;BME280;23698;52.014;5.190;2023-04-16T03:15:40;102112.72;;;9.80;100.00
37860;BME280;23698;52.014;5.190;2023-04-16T03:18:28;102112.34;;;9.75;100.00
37860;BME280;23698;52.014;5.190;2023-04-16T03:21:15;102109.44;;;10.12;100.00
37860;BME280;23698;52.014;5.190;2023-04-16T03:24:01;102115.09;;;10.01;100.00
37860;BME280;23698;52.014;5.190;2023-04-16T03:26:47;102107.81;;;10.19;100.00
37860;BME280;23698;52.014;5.190;2023-04-16T03:29:35;102119.44;;;10.56;100.00
37860;BME280;23698;52.014;5.190;2023-04-16T03:32:23;102117.41;;;10.58;100.00
37860;BME280;23698;52.014;5.190;2023-04-16T03:35:11;102110.94;;;9.89;100.00
37860;BME280;23698;52.014;5.190;2023-04-16T03:37:57;102130.91;;;10.06;100.00
37860;BME280;23698;52.014;5.190;2023-04-16T03:40:44;102110.41;;;10.03;100.00
37860;BME280;23698;52.014;5.190;2023-04-16T03:43:32;102127.44;;;9.95;100.00
37860;BME280;23698;52.014;5.190;2023-04-16T03:46:18;102124.53;;;10.33;100.00
37860;BME280;23698;52.014;5.190;2023-04-16T03:49:04;102130.63;;;9.91;100.00
37860;BME280;23698;52.014;5.190;2023-04-16T03:51:52;102122.19;;;9.76;100.00
37860;BME280;23698;52.014;5.190;2023-04-16T03:54:38;102125.72;;;9.58;100.00
37860;BME280;23698;52.014;5.190;2023-04-16T03:57:36;102128.09;;;9.43;100.00
37860;BME280;23698;52.014;5.190;2023-04-16T04:00:28;102128.97;;;9.62;100.00
37860;BME280;23698;52.014;5.190;2023-04-16T04:03:22;102130.38;;;9.48;100.00
37860;BME280;23698;52.014;5.190;2023-04-16T04:06:11;102126.50;;;9.69;100.00
37860;BME280;23698;52.014;5.190;2023-04-16T04:09:00;102123.09;;;9.49;100.00
37860;BME280;23698;52.014;5.190;2023-04-16T04:11:46;102132.69;;;9.43;100.00
37860;BME280;23698;52.014;5.190;2023-04-16T04:14:33;102125.47;;;9.34;100.00
37860;BME280;23698;52.014;5.190;2023-04-16T04:17:25;102128.72;;;9.37;100.00
37860;BME280;23698;52.014;5.190;2023-04-16T04:20:11;102129.41;;;9.39;100.00
37860;BME280;23698;52.014;5.190;2023-04-16T04:23:01;102132.78;;;9.05;100.00
37860;BME280;23698;52.014;5.190;2023-04-16T04:25:49;102123.03;;;9.40;100.00
37860;BME280;23698;52.014;5.190;2023-04-16T04:28:35;102132.91;;;9.50;100.00
37860;BME280;23698;52.014;5.190;2023-04-16T04:31:22;102124.00;;;9.39;100.00
37860;BME280;23698;52.014;5.190;2023-04-16T04:34:08;102124.97;;;9.20;100.00
37860;BME280;23698;52.014;5.190;2023-04-16T04:36:54;102130.66;;;9.27;100.00
37860;BME280;23698;52.014;5.190;2023-04-16T04:39:45;102133.34;;;9.27;100.00
37860;BME280;23698;52.014;5.190;2023-04-16T04:42:33;102130.19;;;9.32;100.00
37860;BME280;23698;52.014;5.190;2023-04-16T04:45:20;102140.34;;;9.48;100.00
37860;BME280;23698;52.014;5.190;2023-04-16T04:48:10;102149.22;;;9.40;100.00
37860;BME280;23698;52.014;5.190;2023-04-16T04:50:56;102148.09;;;9.60;100.00
37860;BME280;23698;52.014;5.190;2023-04-16T04:53:42;102144.84;;;9.57;100.00
37860;BME280;23698;52.014;5.190;2023-04-16T04:56:28;102143.50;;;9.43;100.00
37860;BME280;23698;52.014;5.190;2023-04-16T04:59:16;102144.84;;;9.57;100.00
37860;BME280;23698;52.014;5.190;2023-04-16T05:02:02;102143.06;;;9.48;100.00
37860;BME280;23698;52.014;5.190;2023-04-16T05:04:49;102156.72;;;9.28;100.00
37860;BME280;23698;52.014;5.190;2023-04-16T05:07:35;102148.59;;;9.28;100.00
37860;BME280;23698;52.014;5.190;2023-04-16T05:10:21;102151.59;;;9.25;100.00
37860;BME280;23698;52.014;5.190;2023-04-16T05:13:07;102150.94;;;9.41;100.00
37860;BME280;23698;52.014;5.190;2023-04-16T05:15:55;102156.78;;;9.36;100.00
37860;BME280;23698;52.014;5.190;2023-04-16T05:18:41;102163.13;;;9.27;100.00
37860;BME280;23698;52.014;5.190;2023-04-16T05:21:27;102166.59;;;9.19;100.00
37860;BME280;23698;52.014;5.190;2023-04-16T05:24:14;102167.31;;;9.12;100.00
37860;BME280;23698;52.014;5.190;2023-04-16T05:27:01;102177.72;;;9.06;100.00
37860;BME280;23698;52.014;5.190;2023-04-16T05:29:47;102175.50;;;9.30;100.00
37860;BME280;23698;52.014;5.190;2023-04-16T05:32:35;102179.59;;;9.34;100.00
37860;BME280;23698;52.014;5.190;2023-04-16T05:35:22;102185.81;;;9.44;100.00
37860;BME280;23698;52.014;5.190;2023-04-16T05:38:07;102179.25;;;9.19;100.00
37860;BME280;23698;52.014;5.190;2023-04-16T05:40:54;102178.53;;;9.17;100.00
37860;BME280;23698;52.014;5.190;2023-04-16T05:43:40;102180.00;;;9.39;100.00
37860;BME280;23698;52.014;5.190;2023-04-16T05:46:27;102173.13;;;9.44;100.00
37860;BME280;23698;52.014;5.190;2023-04-16T05:49:15;102179.72;;;9.14;100.00
37860;BME280;23698;52.014;5.190;2023-04-16T05:52:03;102187.34;;;9.47;100.00
37860;BME280;23698;52.014;5.190;2023-04-16T05:54:49;102189.47;;;9.25;100.00
37860;BME280;23698;52.014;5.190;2023-04-16T05:57:35;102194.09;;;9.15;100.00
37860;BME280;23698;52.014;5.190;2023-04-16T06:00:21;102210.63;;;9.39;100.00
37860;BME280;23698;52.014;5.190;2023-04-16T06:03:08;102196.28;;;9.57;100.00
37860;BME280;23698;52.014;5.190;2023-04-16T06:05:56;102195.41;;;9.38;100.00
37860;BME280;23698;52.014;5.190;2023-04-16T06:08:43;102200.84;;;9.56;100.00
37860;BME280;23698;52.014;5.190;2023-04-16T06:11:29;102195.69;;;9.35;100.00
37860;BME280;23698;52.014;5.190;2023-04-16T06:14:18;102193.69;;;9.37;100.00
37860;BME280;23698;52.014;5.190;2023-04-16T06:17:04;102200.59;;;9.50;100.00
37860;BME280;23698;52.014;5.190;2023-04-16T06:19:50;102203.56;;;9.29;100.00
37860;BME280;23698;52.014;5.190;2023-04-16T06:22:38;102208.72;;;9.50;100.00
37860;BME280;23698;52.014;5.190;2023-04-16T06:25:24;102207.88;;;9.21;100.00
37860;BME280;23698;52.014;5.190;2023-04-16T06:28:10;102214.34;;;9.38;100.00
37860;BME280;23698;52.014;5.190;2023-04-16T06:30:56;102219.50;;;9.59;100.00
37860;BME280;23698;52.014;5.190;2023-04-16T06:33:43;102210.44;;;9.51;100.00
37860;BME280;23698;52.014;5.190;2023-04-16T06:36:29;102210.91;;;9.64;100.00
37860;BME280;23698;52.014;5.190;2023-04-16T06:39:17;102218.03;;;9.65;100.00
37860;BME280;23698;52.014;5.190;2023-04-16T06:42:05;102220.22;;;9.97;100.00
37860;BME280;23698;52.014;5.190;2023-04-16T06:44:51;102211.41;;;9.77;100.00
37860;BME280;23698;52.014;5.190;2023-04-16T06:47:37;102213.53;;;9.56;100.00
37860;BME280;23698;52.014;5.190;2023-04-16T06:50:24;102221.06;;;9.80;100.00
37860;BME280;23698;52.014;5.190;2023-04-16T06:53:11;102216.13;;;9.75;100.00
37860;BME280;23698;52.014;5.190;2023-04-16T06:55:59;102216.06;;;9.57;100.00
37860;BME280;23698;52.014;5.190;2023-04-16T06:58:46;102218.50;;;9.78;100.00
37860;BME280;23698;52.014;5.190;2023-04-16T07:01:32;102222.31;;;9.86;100.00
37860;BME280;23698;52.014;5.190;2023-04-16T07:04:19;102225.94;;;10.30;100.00
37860;BME280;23698;52.014;5.190;2023-04-16T07:07:06;102224.03;;;10.23;100.00
37860;BME280;23698;52.014;5.190;2023-04-16T07:09:52;102234.94;;;9.95;100.00
37860;BME280;23698;52.014;5.190;2023-04-16T07:12:42;102227.91;;;9.84;100.00
37860;BME280;23698;52.014;5.190;2023-04-16T07:15:28;102235.88;;;9.86;100.00
37860;BME280;23698;52.014;5.190;2023-04-16T07:18:15;102233.19;;;9.58;100.00
37860;BME280;23698;52.014;5.190;2023-04-16T07:21:05;102240.69;;;9.64;100.00
37860;BME280;23698;52.014;5.190;2023-04-16T07:23:53;102236.63;;;9.78;100.00
37860;BME280;23698;52.014;5.190;2023-04-16T07:26:39;102238.72;;;10.02;100.00
37860;BME280;23698;52.014;5.190;2023-04-16T07:29:30;102247.34;;;9.70;100.00
37860;BME280;23698;52.014;5.190;2023-04-16T07:32:16;102244.75;;;9.50;100.00
37860;BME280;23698;52.014;5.190;2023-04-16T07:35:03;102251.25;;;9.85;100.00
37860;BME280;23698;52.014;5.190;2023-04-16T07:37:50;102242.81;;;9.70;100.00
37860;BME280;23698;52.014;5.190;2023-04-16T07:40:36;102255.78;;;9.67;100.00
37860;BME280;23698;52.014;5.190;2023-04-16T07:43:26;102251.38;;;9.66;100.00
37860;BME280;23698;52.014;5.190;2023-04-16T07:46:13;102253.63;;;9.70;100.00
37860;BME280;23698;52.014;5.190;2023-04-16T07:49:00;102254.69;;;9.59;100.00
37860;BME280;23698;52.014;5.190;2023-04-16T07:51:46;102264.50;;;9.60;100.00
37860;BME280;23698;52.014;5.190;2023-04-16T07:54:35;102270.19;;;9.67;100.00
37860;BME280;23698;52.014;5.190;2023-04-16T07:57:23;102269.91;;;9.60;100.00
37860;BME280;23698;52.014;5.190;2023-04-16T08:00:14;102271.56;;;9.71;100.00
37860;BME280;23698;52.014;5.190;2023-04-16T08:03:02;102268.84;;;9.71;100.00
37860;BME280;23698;52.014;5.190;2023-04-16T08:05:50;102270.69;;;9.80;100.00
37860;BME280;23698;52.014;5.190;2023-04-16T08:08:39;102268.72;;;9.73;100.00
37860;BME280;23698;52.014;5.190;2023-04-16T08:11:28;102280.28;;;9.93;100.00
37860;BME280;23698;52.014;5.190;2023-04-16T08:14:14;102285.97;;;9.99;100.00
37860;BME280;23698;52.014;5.190;2023-04-16T08:17:00;102293.69;;;9.94;100.00
37860;BME280;23698;52.014;5.190;2023-04-16T08:19:49;102292.19;;;9.82;100.00
37860;BME280;23698;52.014;5.190;2023-04-16T08:22:37;102291.72;;;9.87;100.00
37860;BME280;23698;52.014;5.190;2023-04-16T08:25:24;102295.38;;;9.68;100.00
37860;BME280;23698;52.014;5.190;2023-04-16T08:28:15;102295.28;;;9.87;100.00
37860;BME280;23698;52.014;5.190;2023-04-16T08:31:01;102293.63;;;10.04;100.00
37860;BME280;23698;52.014;5.190;2023-04-16T08:33:50;102292.78;;;10.04;100.00
37860;BME280;23698;52.014;5.190;2023-04-16T08:36:40;102292.78;;;10.21;100.00
37860;BME280;23698;52.014;5.190;2023-04-16T08:39:26;102298.34;;;10.20;100.00
37860;BME280;23698;52.014;5.190;2023-04-16T08:42:23;102294.78;;;10.19;100.00
37860;BME280;23698;52.014;5.190;2023-04-16T08:45:16;102301.31;;;10.27;100.00
37860;BME280;23698;52.014;5.190;2023-04-16T08:48:05;102304.09;;;10.17;100.00
37860;BME280;23698;52.014;5.190;2023-04-16T08:50:52;102309.84;;;10.32;100.00
37860;BME280;23698;52.014;5.190;2023-04-16T08:53:51;102304.13;;;10.35;100.00
37860;BME280;23698;52.014;5.190;2023-04-16T08:56:38;102310.34;;;10.45;100.00
37860;BME280;23698;52.014;5.190;2023-04-16T08:59:27;102315.22;;;10.42;100.00
37860;BME280;23698;52.014;5.190;2023-04-16T09:02:14;102310.41;;;10.71;100.00
37860;BME280;23698;52.014;5.190;2023-04-16T09:05:06;102312.31;;;10.79;100.00
37860;BME280;23698;52.014;5.190;2023-04-16T09:07:53;102313.13;;;11.24;100.00
37860;BME280;23698;52.014;5.190;2023-04-16T09:10:42;102319.63;;;11.05;100.00
37860;BME280;23698;52.014;5.190;2023-04-16T09:13:30;102326.19;;;10.76;100.00
37860;BME280;23698;52.014;5.190;2023-04-16T09:16:16;102324.25;;;11.12;100.00
37860;BME280;23698;52.014;5.190;2023-04-16T09:19:03;102315.56;;;10.83;100.00
37860;BME280;23698;52.014;5.190;2023-04-16T09:21:53;102314.13;;;10.52;100.00
37860;BME280;23698;52.014;5.190;2023-04-16T09:24:39;102327.97;;;10.67;100.00
37860;BME280;23698;52.014;5.190;2023-04-16T09:27:27;102323.19;;;11.05;100.00
37860;BME280;23698;52.014;5.190;2023-04-16T09:30:23;102320.13;;;10.82;100.00
37860;BME280;23698;52.014;5.190;2023-04-16T09:33:13;102332.22;;;11.14;100.00
37860;BME280;23698;52.014;5.190;2023-04-16T09:36:00;102334.56;;;11.09;100.00
37860;BME280;23698;52.014;5.190;2023-04-16T09:38:49;102330.78;;;11.02;100.00
37860;BME280;23698;52.014;5.190;2023-04-16T09:41:36;102334.50;;;11.01;100.00
37860;BME280;23698;52.014;5.190;2023-04-16T09:44:34;102347.94;;;11.28;100.00
37860;BME280;23698;52.014;5.190;2023-04-16T09:47:22;102349.31;;;11.06;100.00
37860;BME280;23698;52.014;5.190;2023-04-16T09:50:14;102349.66;;;11.29;100.00
37860;BME280;23698;52.014;5.190;2023-04-16T09:53:03;102345.47;;;10.91;100.00
37860;BME280;23698;52.014;5.190;2023-04-16T09:55:50;102347.31;;;11.08;100.00
37860;BME280;23698;52.014;5.190;2023-04-16T09:58:37;102355.53;;;10.99;100.00
37860;BME280;23698;52.014;5.190;2023-04-16T10:01:29;102342.09;;;11.15;100.00
37860;BME280;23698;52.014;5.190;2023-04-16T10:04:17;102355.22;;;11.02;100.00
37860;BME280;23698;52.014;5.190;2023-04-16T10:07:05;102351.28;;;10.78;100.00
37860;BME280;23698;52.014;5.190;2023-04-16T10:09:52;102352.69;;;10.82;100.00
37860;BME280;23698;52.014;5.190;2023-04-16T10:12:39;102354.88;;;10.79;100.00
37860;BME280;23698;52.014;5.190;2023-04-16T10:15:30;102366.50;;;10.89;100.00
37860;BME280;23698;52.014;5.190;2023-04-16T10:18:18;102359.06;;;10.73;100.00
37860;BME280;23698;52.014;5.190;2023-04-16T10:21:10;102361.03;;;11.07;100.00
37860;BME280;23698;52.014;5.190;2023-04-16T10:23:57;102370.03;;;11.33;100.00
37860;BME280;23698;52.014;5.190;2023-04-16T10:26:44;102360.56;;;10.93;100.00
37860;BME280;23698;52.014;5.190;2023-04-16T10:29:33;102358.84;;;11.10;100.00
37860;BME280;23698;52.014;5.190;2023-04-16T10:32:21;102367.22;;;11.43;100.00
37860;BME280;23698;52.014;5.190;2023-04-16T10:35:18;102369.66;;;11.28;100.00
37860;BME280;23698;52.014;5.190;2023-04-16T10:38:28;102370.63;;;11.19;100.00
37860;BME280;23698;52.014;5.190;2023-04-16T10:41:18;102364.19;;;11.20;100.00
37860;BME280;23698;52.014;5.190;2023-04-16T10:44:06;102366.69;;;11.13;100.00
37860;BME280;23698;52.014;5.190;2023-04-16T10:46:54;102371.41;;;10.93;100.00
37860;BME280;23698;52.014;5.190;2023-04-16T10:49:46;102368.19;;;11.34;100.00
37860;BME280;23698;52.014;5.190;2023-04-16T10:52:34;102355.28;;;11.10;100.00
37860;BME280;23698;52.014;5.190;2023-04-16T10:55:20;102366.03;;;11.46;100.00
37860;BME280;23698;52.014;5.190;2023-04-16T10:58:27;102366.91;;;11.20;100.00
37860;BME280;23698;52.014;5.190;2023-04-16T11:01:16;102365.78;;;11.31;100.00
37860;BME280;23698;52.014;5.190;2023-04-16T11:04:25;102371.31;;;11.21;100.00
37860;BME280;23698;52.014;5.190;2023-04-16T11:07:18;102369.44;;;11.22;100.00
37860;BME280;23698;52.014;5.190;2023-04-16T11:10:11;102369.72;;;11.37;100.00
37860;BME280;23698;52.014;5.190;2023-04-16T11:12:59;102364.75;;;11.32;100.00
37860;BME280;23698;52.014;5.190;2023-04-16T11:15:50;102360.03;;;11.95;100.00
37860;BME280;23698;52.014;5.190;2023-04-16T11:18:38;102366.81;;;11.64;100.00
37860;BME280;23698;52.014;5.190;2023-04-16T11:21:36;102366.56;;;11.84;100.00
37860;BME280;23698;52.014;5.190;2023-04-16T11:24:22;102372.47;;;11.79;100.00
37860;BME280;23698;52.014;5.190;2023-04-16T11:27:14;102367.53;;;12.09;100.00
37860;BME280;23698;52.014;5.190;2023-04-16T11:30:03;102370.22;;;11.66;100.00
37860;BME280;23698;52.014;5.190;2023-04-16T11:32:49;102381.25;;;11.65;100.00
37860;BME280;23698;52.014;5.190;2023-04-16T11:35:36;102381.72;;;11.86;100.00
37860;BME280;23698;52.014;5.190;2023-04-16T11:38:33;102373.66;;;12.03;100.00
37860;BME280;23698;52.014;5.190;2023-04-16T11:41:23;102378.41;;;12.01;100.00
37860;BME280;23698;52.014;5.190;2023-04-16T11:44:18;102381.78;;;11.68;100.00
37860;BME280;23698;52.014;5.190;2023-04-16T11:47:05;102374.41;;;11.87;100.00
37860;BME280;23698;52.014;5.190;2023-04-16T11:49:52;102378.84;;;11.62;100.00
37860;BME280;23698;52.014;5.190;2023-04-16T11:52:40;102377.41;;;11.76;100.00
37860;BME280;23698;52.014;5.190;2023-04-16T11:55:26;102377.97;;;11.87;100.00
37860;BME280;23698;52.014;5.190;2023-04-16T11:58:13;102382.72;;;12.28;100.00
37860;BME280;23698;52.014;5.190;2023-04-16T12:01:03;102383.34;;;12.05;100.00
37860;BME280;23698;52.014;5.190;2023-04-16T12:04:00;102383.97;;;11.91;100.00
37860;BME280;23698;52.014;5.190;2023-04-16T12:07:07;102386.38;;;11.68;100.00
37860;BME280;23698;52.014;5.190;2023-04-16T12:10:04;102379.38;;;12.34;100.00
37860;BME280;23698;52.014;5.190;2023-04-16T12:12:51;102386.69;;;12.42;100.00
37860;BME280;23698;52.014;5.190;2023-04-16T12:15:44;102391.47;;;12.05;100.00
37860;BME280;23698;52.014;5.190;2023-04-16T12:18:32;102394.28;;;12.22;100.00
37860;BME280;23698;52.014;5.190;2023-04-16T12:21:18;102401.03;;;12.18;100.00
37860;BME280;23698;52.014;5.190;2023-04-16T12:24:06;102403.84;;;12.34;100.00
37860;BME280;23698;52.014;5.190;2023-04-16T12:26:53;102403.69;;;12.36;100.00
37860;BME280;23698;52.014;5.190;2023-04-16T12:29:41;102405.72;;;12.34;100.00
37860;BME280;23698;52.014;5.190;2023-04-16T12:32:27;102405.28;;;12.04;100.00
37860;BME280;23698;52.014;5.190;2023-04-16T12:35:29;102407.56;;;12.25;100.00
37860;BME280;23698;52.014;5.190;2023-04-16T12:38:16;102402.75;;;12.78;100.00
37860;BME280;23698;52.014;5.190;2023-04-16T12:41:02;102393.63;;;12.36;100.00
37860;BME280;23698;52.014;5.190;2023-04-16T12:43:50;102400.16;;;12.68;100.00
37860;BME280;23698;52.014;5.190;2023-04-16T12:58:39;102399.00;;;12.87;100.00
37860;BME280;23698;52.014;5.190;2023-04-16T13:01:26;102395.28;;;13.21;100.00
37860;BME280;23698;52.014;5.190;2023-04-16T13:04:13;102410.72;;;12.88;100.00
37860;BME280;23698;52.014;5.190;2023-04-16T13:07:15;102405.13;;;13.22;100.00
37860;BME280;23698;52.014;5.190;2023-04-16T13:11:03;102399.00;;;12.87;100.00
37860;BME280;23698;52.014;5.190;2023-04-16T13:13:51;102403.91;;;13.00;100.00
37860;BME280;23698;52.014;5.190;2023-04-16T13:16:37;102404.44;;;13.36;100.00
37860;BME280;23698;52.014;5.190;2023-04-16T13:19:24;102398.66;;;13.23;100.00
37860;BME280;23698;52.014;5.190;2023-04-16T13:22:10;102396.88;;;13.79;100.00
37860;BME280;23698;52.014;5.190;2023-04-16T13:24:57;102405.78;;;13.57;100.00
37860;BME280;23698;52.014;5.190;2023-04-16T13:27:43;102413.47;;;13.29;100.00
37860;BME280;23698;52.014;5.190;2023-04-16T13:30:31;102412.66;;;13.92;100.00
37860;BME280;23698;52.014;5.190;2023-04-16T13:33:18;102410.66;;;13.86;100.00
37860;BME280;23698;52.014;5.190;2023-04-16T13:36:06;102407.66;;;13.65;100.00
37860;BME280;23698;52.014;5.190;2023-04-16T13:38:52;102412.72;;;13.84;100.00
37860;BME280;23698;52.014;5.190;2023-04-16T13:41:39;102412.03;;;14.22;100.00
37860;BME280;23698;52.014;5.190;2023-04-16T13:44:25;102410.50;;;14.59;100.00
37860;BME280;23698;52.014;5.190;2023-04-16T13:47:13;102417.59;;;13.97;100.00
37860;BME280;23698;52.014;5.190;2023-04-16T13:49:59;102410.56;;;13.63;100.00
37860;BME280;23698;52.014;5.190;2023-04-16T13:52:46;102416.28;;;13.76;100.00
37860;BME280;23698;52.014;5.190;2023-04-16T13:55:32;102402.22;;;13.65;100.00
37860;BME280;23698;52.014;5.190;2023-04-16T13:58:23;102401.06;;;13.43;100.00
37860;BME280;23698;52.014;5.190;2023-04-16T14:01:10;102402.91;;;13.17;100.00
37860;BME280;23698;52.014;5.190;2023-04-16T14:04:00;102404.94;;;13.56;100.00
37860;BME280;23698;52.014;5.190;2023-04-16T14:06:50;102401.53;;;13.54;100.00
37860;BME280;23698;52.014;5.190;2023-04-16T14:09:37;102400.88;;;13.44;100.00
37860;BME280;23698;52.014;5.190;2023-04-16T14:12:23;102399.28;;;13.66;100.00
37860;BME280;23698;52.014;5.190;2023-04-16T14:15:10;102406.38;;;13.92;100.00
37860;BME280;23698;52.014;5.190;2023-04-16T14:17:58;102409.03;;;14.40;100.00
37860;BME280;23698;52.014;5.190;2023-04-16T14:20:47;102411.69;;;14.25;100.00
37860;BME280;23698;52.014;5.190;2023-04-16T14:23:33;102413.34;;;13.94;100.00
37860;BME280;23698;52.014;5.190;2023-04-16T14:26:20;102409.94;;;13.92;100.00
37860;BME280;23698;52.014;5.190;2023-04-16T14:29:07;102400.00;;;13.44;100.00
37860;BME280;23698;52.014;5.190;2023-04-16T14:31:54;102411.59;;;13.04;100.00
37860;BME280;23698;52.014;5.190;2023-04-16T14:34:41;102410.06;;;13.27;100.00
37860;BME280;23698;52.014;5.190;2023-04-16T14:38:06;102408.53;;;12.99;100.00
37860;BME280;23698;52.014;5.190;2023-04-16T14:54:06;102416.00;;;12.97;100.00
37860;BME280;23698;52.014;5.190;2023-04-16T14:58:00;102405.63;;;13.26;100.00
37860;BME280;23698;52.014;5.190;2023-04-16T15:01:09;102414.50;;;13.36;100.00